createdAt,value
2018-06-19T00:01:19.975Z,58.28
2018-06-19T00:03:50.083Z,58.38
2018-06-19T00:06:19.905Z,58.37
2018-06-19T00:08:49.666Z,58.83
2018-06-19T00:11:19.578Z,58.79
2018-06-19T00:13:49.443Z,59.28
2018-06-19T00:16:19.045Z,59.62
2018-06-19T00:18:51.904Z,59.71
2018-06-19T00:21:27.898Z,60.07
2018-06-19T00:23:57.629Z,59.54
2018-06-19T00:26:27.166Z,59.59
2018-06-19T00:28:56.619Z,59.54
2018-06-19T00:31:26.232Z,59.39
2018-06-19T00:33:55.642Z,59.68
2018-06-19T00:36:25.084Z,59.85
2018-06-19T00:38:54.939Z,59.64
2018-06-19T00:41:24.464Z,59.53
2018-06-19T00:43:54.043Z,59.77
2018-06-19T00:46:26.042Z,59.52
2018-06-19T00:48:55.675Z,59.42
2018-06-19T00:51:25.428Z,59.35
2018-06-19T00:53:55.077Z,59.29
2018-06-19T00:56:35.446Z,59.82
2018-06-19T00:59:05.203Z,59.90
2018-06-19T01:01:34.966Z,59.60
2018-06-19T01:04:04.493Z,60.04
2018-06-19T01:06:34.164Z,59.94
2018-06-19T01:09:05.163Z,59.22
2018-06-19T01:11:34.783Z,59.38
2018-06-19T01:14:04.552Z,59.47
2018-06-19T01:16:34.260Z,60.02
2018-06-19T01:19:03.659Z,59.89
2018-06-19T01:21:33.261Z,59.65
2018-06-19T01:24:02.875Z,59.59
2018-06-19T01:26:32.240Z,59.85
2018-06-19T01:29:01.870Z,59.81
2018-06-19T01:31:31.473Z,59.51
2018-06-19T01:34:00.991Z,59.41
2018-06-19T01:36:30.704Z,60.14
2018-06-19T01:39:00.438Z,59.97
2018-06-19T01:41:29.920Z,59.92
2018-06-19T01:43:59.675Z,59.69
2018-06-19T01:46:29.282Z,60.43
2018-06-19T01:48:58.761Z,59.79
2018-06-19T01:51:28.618Z,59.47
2018-06-19T01:53:58.682Z,59.55
2018-06-19T01:56:28.811Z,59.95
2018-06-19T01:58:58.397Z,59.45
2018-06-19T02:01:28.290Z,59.72
2018-06-19T02:03:58.118Z,60.09
2018-06-19T02:06:27.831Z,59.92
2018-06-19T02:08:57.775Z,60.06
2018-06-19T02:11:27.306Z,59.80
2018-06-19T02:13:56.810Z,59.53
2018-06-19T02:16:26.786Z,59.31
2018-06-19T02:18:56.583Z,59.65
2018-06-19T02:21:26.162Z,59.92
2018-06-19T02:23:55.882Z,59.58
2018-06-19T02:26:25.623Z,60.09
2018-06-19T02:28:55.097Z,59.96
2018-06-19T02:31:24.727Z,59.26
2018-06-19T02:33:54.508Z,58.73
2018-06-19T02:36:23.833Z,58.59
2018-06-19T02:38:53.492Z,58.40
2018-06-19T02:41:23.038Z,58.35
2018-06-19T02:43:52.393Z,58.19
2018-06-19T02:46:22.054Z,58.14
2018-06-19T02:48:51.685Z,57.73
2018-06-19T02:51:21.177Z,57.69
2018-06-19T02:53:50.929Z,57.85
2018-06-19T02:56:20.652Z,58.46
2018-06-19T02:58:50.067Z,58.46
2018-06-19T03:01:19.558Z,58.24
2018-06-19T03:03:49.257Z,58.16
2018-06-19T03:06:18.812Z,58.40
2018-06-19T03:08:48.674Z,58.42
2018-06-19T03:11:18.369Z,58.65
2018-06-19T03:13:47.893Z,59.02
2018-06-19T03:16:17.653Z,58.85
2018-06-19T03:18:47.158Z,58.77
2018-06-19T03:21:17.147Z,59.23
2018-06-19T03:23:47.181Z,59.17
2018-06-19T03:26:16.887Z,59.18
2018-06-19T03:28:46.219Z,59.38
2018-06-19T03:31:15.877Z,59.24
2018-06-19T03:33:45.413Z,59.29
2018-06-19T03:36:15.052Z,58.89
2018-06-19T03:38:45.626Z,59.29
2018-06-19T03:41:15.480Z,59.15
2018-06-19T03:43:44.998Z,59.84
2018-06-19T03:46:14.745Z,60.29
2018-06-19T03:48:44.568Z,60.01
2018-06-19T03:51:14.102Z,60.09
2018-06-19T03:53:43.713Z,60.76
2018-06-19T03:56:13.330Z,60.41
2018-06-19T03:58:42.801Z,60.38
2018-06-19T04:01:12.346Z,60.09
2018-06-19T04:03:42.098Z,60.34
2018-06-19T04:06:11.544Z,60.77
2018-06-19T04:08:41.135Z,60.68
2018-06-19T04:11:10.673Z,60.58
2018-06-19T04:13:40.190Z,61.19
2018-06-19T04:16:09.992Z,61.30
2018-06-19T04:18:39.659Z,61.29
2018-06-19T04:21:09.584Z,61.70
2018-06-19T04:23:39.254Z,61.09
2018-06-19T04:26:09.304Z,61.60
2018-06-19T04:28:39.018Z,61.31
2018-06-19T04:31:11.384Z,61.62
2018-06-19T04:33:41.563Z,61.18
2018-06-19T04:36:13.298Z,61.57
2018-06-19T04:38:42.712Z,61.46
2018-06-19T04:41:12.114Z,61.92
2018-06-19T04:43:41.765Z,62.28
2018-06-19T04:46:11.656Z,61.92
2018-06-19T04:48:41.289Z,61.62
2018-06-19T04:51:11.174Z,62.07
2018-06-19T04:53:40.778Z,61.72
2018-06-19T04:56:10.429Z,62.12
2018-06-19T04:58:40.564Z,62.42
2018-06-19T05:01:10.213Z,62.66
2018-06-19T05:03:39.870Z,62.26
2018-06-19T05:06:09.415Z,62.43
2018-06-19T05:08:38.813Z,62.76
2018-06-19T05:11:08.447Z,62.44
2018-06-19T05:13:37.984Z,62.70
2018-06-19T05:16:07.069Z,62.64
2018-06-19T05:18:36.835Z,62.65
2018-06-19T05:21:06.617Z,62.58
2018-06-19T05:23:36.088Z,62.61
2018-06-19T05:26:05.768Z,62.29
2018-06-19T05:28:35.256Z,62.73
2018-06-19T05:31:04.999Z,63.05
2018-06-19T05:33:34.430Z,62.83
2018-06-19T05:36:03.957Z,62.80
2018-06-19T05:38:33.559Z,63.38
2018-06-19T05:41:02.949Z,62.95
2018-06-19T05:43:32.598Z,63.11
2018-06-19T05:46:02.469Z,63.05
2018-06-19T05:48:31.877Z,62.61
2018-06-19T05:51:01.394Z,62.71
2018-06-19T05:53:31.207Z,63.36
2018-06-19T05:56:01.021Z,63.74
2018-06-19T05:58:30.670Z,63.08
2018-06-19T06:01:00.161Z,62.76
2018-06-19T06:03:29.833Z,63.30
2018-06-19T06:05:59.457Z,62.95
2018-06-19T06:08:28.936Z,62.57
2018-06-19T06:10:58.811Z,62.77
2018-06-19T06:13:28.631Z,62.18
2018-06-19T06:15:58.079Z,61.76
2018-06-19T06:18:27.797Z,61.98
2018-06-19T06:20:57.236Z,61.40
2018-06-19T06:23:26.682Z,61.58
2018-06-19T06:25:56.000Z,61.76
2018-06-19T06:28:25.693Z,61.45
2018-06-19T06:30:55.195Z,61.22
2018-06-19T06:33:24.970Z,61.09
2018-06-19T06:35:54.836Z,60.47
2018-06-19T06:38:24.348Z,60.25
2018-06-19T06:40:53.997Z,60.76
2018-06-19T06:43:23.573Z,64.04
2018-06-19T06:45:53.325Z,64.72
2018-06-19T06:48:22.629Z,65.79
2018-06-19T06:50:52.211Z,66.69
2018-06-19T06:53:21.901Z,67.70
2018-06-19T06:55:51.497Z,67.29
2018-06-19T06:58:21.544Z,66.99
2018-06-19T07:00:51.013Z,67.25
2018-06-19T07:03:21.623Z,67.65
2018-06-19T07:05:51.294Z,68.33
2018-06-19T07:08:21.056Z,67.38
2018-06-19T07:10:51.128Z,67.14
2018-06-19T07:13:21.427Z,66.22
2018-06-19T07:15:51.731Z,65.87
2018-06-19T07:18:21.800Z,65.92
2018-06-19T07:20:51.597Z,66.15
2018-06-19T07:23:21.052Z,65.73
2018-06-19T07:25:50.882Z,66.13
2018-06-19T07:28:20.403Z,66.34
2018-06-19T07:30:49.746Z,66.62
2018-06-19T07:33:19.491Z,67.25
2018-06-19T07:35:49.133Z,68.06
2018-06-19T07:38:18.528Z,71.14
2018-06-19T07:40:48.295Z,69.69
2018-06-19T07:43:18.122Z,69.68
2018-06-19T07:45:47.208Z,69.58
2018-06-19T07:48:16.826Z,68.98
2018-06-19T07:50:46.580Z,68.87
2018-06-19T07:53:16.039Z,68.75
2018-06-19T07:55:45.284Z,68.42
2018-06-19T07:58:15.108Z,65.87
2018-06-19T08:00:44.509Z,63.05
2018-06-19T08:03:13.581Z,63.32
2018-06-19T08:05:43.172Z,63.52
2018-06-19T08:08:13.001Z,62.84
2018-06-19T08:10:42.340Z,61.43
2018-06-19T08:13:12.010Z,58.75
2018-06-19T08:15:41.973Z,59.13
2018-06-19T08:18:11.629Z,57.34
2018-06-19T08:20:41.297Z,58.34
2018-06-19T08:23:10.960Z,58.68
2018-06-19T08:25:40.460Z,57.09
2018-06-19T08:28:10.220Z,57.51
2018-06-19T08:30:39.986Z,57.19
2018-06-19T08:33:09.540Z,56.02
2018-06-19T08:35:38.787Z,54.41
2018-06-19T08:38:08.235Z,54.99
2018-06-19T08:40:37.901Z,53.69
2018-06-19T08:43:07.540Z,54.09
2018-06-19T08:45:37.125Z,53.59
2018-06-19T08:48:06.882Z,54.19
2018-06-19T08:50:36.629Z,53.81
2018-06-19T08:53:05.981Z,54.84
2018-06-19T08:55:35.260Z,54.37
2018-06-19T08:58:05.120Z,52.87
2018-06-19T09:00:34.663Z,53.64
2018-06-19T09:03:04.174Z,53.85
2018-06-19T09:05:33.780Z,53.97
2018-06-19T09:08:03.546Z,52.91
2018-06-19T09:10:33.149Z,54.26
2018-06-19T09:13:02.687Z,54.27
2018-06-19T09:15:32.217Z,54.10
2018-06-19T09:18:02.105Z,54.03
2018-06-19T09:20:32.327Z,53.52
2018-06-19T09:23:01.985Z,54.02
2018-06-19T09:25:31.612Z,52.36
2018-06-19T09:28:01.437Z,52.50
2018-06-19T09:30:30.943Z,52.46
2018-06-19T09:33:00.727Z,51.22
2018-06-19T09:35:30.376Z,51.50
2018-06-19T09:37:59.983Z,50.67
2018-06-19T09:40:29.589Z,49.81
2018-06-19T09:42:59.204Z,49.80
2018-06-19T09:45:28.856Z,49.27
2018-06-19T09:47:58.440Z,49.38
2018-06-19T09:50:28.082Z,50.59
2018-06-19T09:52:57.980Z,49.12
2018-06-19T09:55:27.027Z,49.36
2018-06-19T09:57:56.411Z,49.30
2018-06-19T10:00:31.264Z,47.33
2018-06-19T10:03:01.138Z,47.59
2018-06-19T10:05:31.781Z,48.19
2018-06-19T10:08:01.682Z,47.59
2018-06-19T10:10:31.214Z,48.25
2018-06-19T10:13:00.760Z,45.57
2018-06-19T10:15:30.515Z,44.29
2018-06-19T10:17:59.695Z,42.38
2018-06-19T10:20:29.258Z,42.23
2018-06-19T10:22:59.062Z,40.94
2018-06-19T10:25:28.295Z,41.44
2018-06-19T10:27:57.511Z,42.54
2018-06-19T10:30:27.398Z,42.86
2018-06-19T10:32:56.593Z,43.36
2018-06-19T10:35:26.120Z,43.26
2018-06-19T10:37:55.563Z,43.68
2018-06-19T10:40:25.360Z,42.97
2018-06-19T10:42:55.032Z,42.83
2018-06-19T10:45:24.454Z,43.13
2018-06-19T10:47:54.057Z,43.39
2018-06-19T10:50:23.583Z,42.98
2018-06-19T10:52:53.241Z,43.03
2018-06-19T10:55:22.902Z,42.68
2018-06-19T10:57:52.588Z,43.00
2018-06-19T11:00:22.411Z,44.10
2018-06-19T11:02:52.296Z,43.41
2018-06-19T11:05:21.729Z,44.03
2018-06-19T11:07:51.366Z,44.14
2018-06-19T11:10:21.011Z,43.86
2018-06-19T11:12:50.388Z,42.93
2018-06-19T11:15:20.175Z,41.70
2018-06-19T11:17:49.907Z,41.77
2018-06-19T11:20:19.405Z,42.32
2018-06-19T11:22:49.202Z,43.16
2018-06-19T11:25:18.908Z,43.74
2018-06-19T11:27:48.354Z,44.43
2018-06-19T11:30:18.314Z,44.81
2018-06-19T11:32:48.106Z,44.88
2018-06-19T11:35:17.296Z,45.10
2018-06-19T11:37:47.003Z,44.93
2018-06-19T11:40:16.633Z,45.58
2018-06-19T11:42:46.056Z,44.89
2018-06-19T11:45:15.918Z,44.76
2018-06-19T11:47:45.706Z,44.74
2018-06-19T11:50:15.475Z,45.24
2018-06-19T11:52:45.457Z,45.22
2018-06-19T11:55:15.064Z,45.03
2018-06-19T11:57:45.175Z,44.90
2018-06-19T12:00:14.462Z,43.97
2018-06-19T12:02:44.048Z,43.62
2018-06-19T12:05:13.568Z,44.32
2018-06-19T12:07:44.630Z,45.63
2018-06-19T12:10:14.135Z,45.66
2018-06-19T12:12:43.565Z,46.25
2018-06-19T12:15:12.971Z,45.48
2018-06-19T12:17:42.590Z,46.03
2018-06-19T12:20:12.304Z,46.50
2018-06-19T12:22:41.825Z,46.37
2018-06-19T12:25:11.433Z,47.18
2018-06-19T12:27:40.853Z,46.31
2018-06-19T12:30:10.258Z,45.21
2018-06-19T12:32:39.966Z,45.13
2018-06-19T12:35:09.321Z,44.74
2018-06-19T12:37:39.182Z,43.83
2018-06-19T12:40:08.702Z,42.72
2018-06-19T12:42:38.005Z,42.73
2018-06-19T12:45:08.033Z,43.04
2018-06-19T12:47:37.299Z,42.92
2018-06-19T12:52:20.028Z,43.17
2018-06-19T12:55:31.158Z,43.34
2018-06-19T12:58:01.125Z,42.60
2018-06-19T13:00:30.626Z,43.02
2018-06-19T13:03:10.929Z,43.57
2018-06-19T13:05:51.316Z,42.96
2018-06-19T13:08:21.417Z,43.61
2018-06-19T13:10:50.769Z,44.73
2018-06-19T13:13:31.734Z,43.67
2018-06-19T13:16:01.155Z,44.11
2018-06-19T13:18:42.217Z,44.37
2018-06-19T13:21:11.991Z,43.00
2018-06-19T13:23:41.448Z,42.10
2018-06-19T13:26:10.975Z,43.40
2018-06-19T13:30:03.217Z,44.09
2018-06-19T13:32:33.436Z,43.41
2018-06-19T13:35:03.938Z,42.42
2018-06-19T13:37:33.686Z,41.73
2018-06-19T13:41:16.585Z,42.17
2018-06-19T13:43:57.393Z,41.08
2018-06-19T13:46:27.344Z,41.16
2018-06-19T13:48:56.739Z,40.94
2018-06-19T13:51:27.169Z,41.96
2018-06-19T13:53:56.784Z,42.16
2018-06-19T13:57:10.971Z,41.24
2018-06-19T13:59:41.212Z,42.24
2018-06-19T14:02:11.289Z,42.03
2018-06-19T14:04:40.639Z,42.68
2018-06-19T14:07:09.825Z,42.21
2018-06-19T14:09:50.740Z,41.75
2018-06-19T14:12:32.757Z,42.37
2018-06-19T14:15:02.273Z,43.34
2018-06-19T14:17:32.188Z,43.11
2018-06-19T14:20:01.793Z,42.19
2018-06-19T14:22:31.984Z,42.92
2018-06-19T14:25:01.302Z,42.14
2018-06-19T14:27:30.952Z,42.34
2018-06-19T14:30:00.719Z,42.33
2018-06-19T14:32:30.634Z,42.82
2018-06-19T14:35:00.055Z,43.90
2018-06-19T14:37:29.803Z,43.73
2018-06-19T14:39:59.712Z,43.66
2018-06-19T14:42:29.411Z,41.33
2018-06-19T14:44:59.034Z,41.37
2018-06-19T14:47:29.274Z,41.22
2018-06-19T14:50:00.390Z,41.45
2018-06-19T14:52:30.994Z,41.97
2018-06-19T14:55:01.317Z,42.03
2018-06-19T14:57:31.072Z,41.90
2018-06-19T15:00:01.223Z,42.23
2018-06-19T15:02:31.298Z,41.91
2018-06-19T15:05:01.010Z,42.38
2018-06-19T15:07:35.513Z,43.23
2018-06-19T15:10:05.630Z,43.29
2018-06-19T15:12:35.514Z,43.06
2018-06-19T15:15:05.850Z,43.39
2018-06-19T15:17:36.035Z,43.85
2018-06-19T15:20:05.780Z,43.58
2018-06-19T15:22:35.900Z,42.41
2018-06-19T15:25:06.120Z,42.63
2018-06-19T15:27:35.746Z,42.41
2018-06-19T15:30:05.880Z,42.38
2018-06-19T15:32:35.684Z,43.54
2018-06-19T15:35:05.609Z,43.58
2018-06-19T15:37:35.271Z,43.90
2018-06-19T15:40:05.197Z,43.38
2018-06-19T15:42:34.692Z,43.05
2018-06-19T15:45:04.293Z,43.31
2018-06-19T15:47:33.826Z,43.86
2018-06-19T15:50:02.947Z,43.90
2018-06-19T15:52:32.662Z,44.38
2018-06-19T15:55:02.117Z,45.02
2018-06-19T15:57:31.456Z,44.91
2018-06-19T16:00:00.872Z,44.83
2018-06-19T16:02:30.596Z,44.76
2018-06-19T16:05:00.298Z,45.45
2018-06-19T16:07:29.786Z,45.93
2018-06-19T16:09:59.171Z,46.35
2018-06-19T16:12:28.336Z,46.47
2018-06-19T16:14:57.640Z,45.42
2018-06-19T16:17:27.242Z,45.84
2018-06-19T16:19:56.541Z,46.43
2018-06-19T16:22:26.159Z,45.75
2018-06-19T16:24:55.565Z,44.51
2018-06-19T16:27:24.937Z,44.80
2018-06-19T16:29:54.300Z,44.15
2018-06-19T16:32:23.670Z,43.81
2018-06-19T16:34:53.215Z,44.80
2018-06-19T16:37:22.638Z,44.96
2018-06-19T16:39:52.273Z,44.88
2018-06-19T16:42:21.660Z,46.37
2018-06-19T16:44:50.951Z,46.53
2018-06-19T16:47:20.236Z,46.55
2018-06-19T16:49:49.623Z,46.33
2018-06-19T16:52:19.099Z,46.24
2018-06-19T16:54:48.585Z,46.35
2018-06-19T16:57:18.134Z,46.15
2018-06-19T16:59:47.666Z,45.86
2018-06-19T17:02:17.505Z,46.43
2018-06-19T17:04:47.354Z,45.65
2018-06-19T17:07:17.348Z,45.68
2018-06-19T17:09:46.939Z,45.90
2018-06-19T17:12:16.032Z,46.57
2018-06-19T17:14:45.338Z,47.43
2018-06-19T17:17:15.022Z,48.01
2018-06-19T17:19:44.455Z,48.10
2018-06-19T17:22:13.706Z,48.12
2018-06-19T17:24:43.318Z,48.84
2018-06-19T17:27:12.759Z,47.76
2018-06-19T17:29:42.214Z,47.89
2018-06-19T17:32:11.939Z,48.50
2018-06-19T17:34:41.129Z,48.62
2018-06-19T17:37:10.498Z,48.00
2018-06-19T17:39:40.183Z,48.71
2018-06-19T17:42:09.657Z,48.82
2018-06-19T17:44:39.146Z,48.17
2018-06-19T17:47:09.329Z,48.93
2018-06-19T17:49:39.330Z,49.12
2018-06-19T17:52:08.943Z,48.20
2018-06-19T17:54:38.456Z,49.59
2018-06-19T17:57:08.201Z,49.33
2018-06-19T17:59:37.859Z,48.87
2018-06-19T18:02:07.172Z,48.87
2018-06-19T18:04:36.535Z,49.04
2018-06-19T18:07:06.403Z,49.33
2018-06-19T18:09:35.789Z,49.93
2018-06-19T18:12:05.046Z,50.09
2018-06-19T18:14:34.857Z,50.46
2018-06-19T18:17:04.114Z,50.46
2018-06-19T18:19:33.651Z,50.84
2018-06-19T18:22:03.060Z,51.26
2018-06-19T18:24:32.469Z,50.90
2018-06-19T18:27:02.214Z,50.12
2018-06-19T18:29:31.973Z,50.29
2018-06-19T18:32:01.498Z,50.92
2018-06-19T18:34:30.700Z,51.31
2018-06-19T18:37:00.305Z,50.55
2018-06-19T18:39:29.792Z,50.10
2018-06-19T18:41:59.087Z,50.56
2018-06-19T18:44:28.516Z,51.11
2018-06-19T18:46:58.238Z,51.38
2018-06-19T18:49:27.506Z,51.86
2018-06-19T18:51:57.013Z,51.77
2018-06-19T18:54:26.430Z,51.62
2018-06-19T18:56:56.005Z,51.13
2018-06-19T18:59:25.648Z,50.69
2018-06-19T19:01:54.864Z,50.74
2018-06-19T19:04:24.138Z,50.88
2018-06-19T19:06:53.589Z,51.33
2018-06-19T19:09:23.278Z,51.88
2018-06-19T19:11:52.954Z,52.79
2018-06-19T19:14:22.893Z,52.60
2018-06-19T19:16:57.135Z,52.40
2018-06-19T19:19:27.033Z,52.82
2018-06-19T19:21:56.458Z,52.37
2018-06-19T19:24:25.606Z,52.32
2018-06-19T19:27:00.587Z,52.72
2018-06-19T19:29:35.377Z,52.64
2018-06-19T19:32:05.310Z,52.84
2018-06-19T19:34:34.805Z,52.41
2018-06-19T19:38:09.402Z,51.89
2018-06-19T19:40:39.008Z,53.43
2018-06-19T19:43:08.965Z,53.33
2018-06-19T19:45:38.449Z,53.00
2018-06-19T19:48:13.157Z,53.24
2018-06-19T19:50:43.171Z,53.61
2018-06-19T19:53:12.696Z,54.03
2018-06-19T19:55:47.325Z,54.84
2018-06-19T19:58:22.402Z,54.07
2018-06-19T20:00:51.810Z,53.73
2018-06-19T20:03:21.505Z,53.70
2018-06-19T20:05:50.639Z,53.48
2018-06-19T20:08:25.409Z,54.33
2018-06-19T20:10:55.144Z,54.65
2018-06-19T20:13:24.645Z,54.65
2018-06-19T20:15:54.205Z,54.62
2018-06-19T20:18:23.596Z,55.49
2018-06-19T20:20:53.203Z,55.63
2018-06-19T20:23:22.400Z,55.17
2018-06-19T20:25:52.456Z,55.18
2018-06-19T20:28:21.852Z,54.97
2018-06-19T20:30:51.129Z,55.08
2018-06-19T20:33:20.601Z,56.49
2018-06-19T20:35:50.049Z,56.25
2018-06-19T20:38:20.437Z,55.75
2018-06-19T20:40:49.836Z,54.99
2018-06-19T20:43:19.206Z,54.70
2018-06-19T20:45:48.768Z,54.82
2018-06-19T20:48:18.119Z,54.78
2018-06-19T20:50:47.567Z,54.29
2018-06-19T20:53:16.978Z,54.32
2018-06-19T20:55:46.336Z,54.11
2018-06-19T20:58:15.745Z,54.54
2018-06-19T21:00:45.018Z,54.76
2018-06-19T21:03:14.435Z,54.30
2018-06-19T21:05:44.349Z,54.94
2018-06-19T21:08:13.910Z,54.62
2018-06-19T21:10:43.450Z,55.05
2018-06-19T21:13:13.212Z,55.03
2018-06-19T21:15:42.841Z,55.23
2018-06-19T21:18:12.369Z,54.78
2018-06-19T21:20:41.905Z,54.70
2018-06-19T21:23:11.512Z,54.93
2018-06-19T21:25:41.506Z,55.11
2018-06-19T21:28:11.928Z,54.80
2018-06-19T21:30:41.737Z,54.64
2018-06-19T21:33:11.518Z,54.65
2018-06-19T21:35:41.434Z,54.65
2018-06-19T21:38:10.919Z,54.23
2018-06-19T21:40:40.529Z,54.54
2018-06-19T21:43:10.509Z,54.36
2018-06-19T21:45:39.836Z,54.08
2018-06-19T21:48:09.355Z,54.57
2018-06-19T21:50:39.180Z,54.61
2018-06-19T21:53:08.933Z,55.09
2018-06-19T21:55:38.711Z,54.89
2018-06-19T21:58:08.212Z,54.99
2018-06-19T22:00:37.996Z,54.94
2018-06-19T22:03:07.437Z,55.00
2018-06-19T22:05:37.091Z,55.26
2018-06-19T22:08:06.695Z,55.47
2018-06-19T22:10:36.596Z,55.51
2018-06-19T22:13:06.282Z,55.55
2018-06-19T22:15:35.891Z,56.08
2018-06-19T22:18:06.060Z,55.88
2018-06-19T22:20:36.036Z,55.88
2018-06-19T22:23:06.228Z,56.13
2018-06-19T22:25:35.761Z,55.85
2018-06-19T22:28:06.284Z,56.11
2018-06-19T22:30:36.280Z,55.99
2018-06-19T22:33:05.945Z,56.02
2018-06-19T22:35:36.334Z,56.18
2018-06-19T22:38:05.970Z,56.46
2018-06-19T22:40:35.942Z,56.06
2018-06-19T22:43:06.158Z,55.92
2018-06-19T22:45:36.300Z,55.96
2018-06-19T22:48:06.680Z,56.25
2018-06-19T22:50:36.199Z,56.07
2018-06-19T22:53:05.753Z,56.33
2018-06-19T22:55:35.911Z,56.40
2018-06-19T22:58:05.880Z,56.03
2018-06-19T23:00:36.071Z,56.56
2018-06-19T23:03:06.511Z,57.07
2018-06-19T23:05:37.614Z,57.01
2018-06-19T23:08:07.489Z,56.78
2018-06-19T23:10:37.720Z,56.36
2018-06-19T23:13:07.862Z,55.95
2018-06-19T23:15:37.817Z,55.84
2018-06-19T23:18:07.533Z,55.70
2018-06-19T23:20:37.825Z,56.00
2018-06-19T23:23:07.878Z,55.42
2018-06-19T23:25:37.603Z,55.67
2018-06-19T23:28:07.689Z,55.86
2018-06-19T23:30:37.988Z,56.22
2018-06-19T23:33:07.762Z,56.17
2018-06-19T23:35:37.957Z,56.15
2018-06-19T23:38:08.187Z,56.24
2018-06-19T23:40:38.230Z,56.12
2018-06-19T23:43:08.360Z,55.71
2018-06-19T23:45:38.545Z,55.68
2018-06-19T23:48:08.638Z,56.07
2018-06-19T23:50:38.330Z,55.95
2018-06-19T23:53:08.204Z,56.51
2018-06-19T23:55:38.046Z,56.28
2018-06-19T23:58:07.867Z,56.44
